Time;durP1;ratioP1;P1;durP2;ratioP2;P2;SDS_P1;SDS_P2;PMS_P1;PMS_P2;Temp;Humidity;BMP_temperature;BMP_pressure;BME280_temperature;BME280_humidity;BME280_pressure;Samples;Min_cycle;Max_cycle;Signal;HPM_P1;HPM_P2
2021/04/25 00:00:27;;;;;;;19.20;8.93;;;1.40;99.90;;;;;;5192014;28;20198;-67
2021/04/25 00:02:59;;;;;;;16.57;8.50;;;1.30;99.90;;;;;;5212470;28;20199;-68
2021/04/25 00:05:30;;;;;;;26.00;9.37;;;1.30;99.90;;;;;;5199271;28;20683;-68
2021/04/25 00:08:09;;;;;;;18.90;8.93;;;1.20;99.90;;;;;;5190674;28;20249;-68
2021/04/25 00:10:42;;;;;;;19.03;8.57;;;1.20;99.90;;;;;;5200405;28;20197;-70
2021/04/25 00:13:13;;;;;;;21.10;8.23;;;1.20;99.90;;;;;;5198373;28;20202;-67
2021/04/25 00:15:45;;;;;;;18.83;8.77;;;1.20;99.90;;;;;;5191549;28;20692;-67
2021/04/25 00:18:16;;;;;;;22.00;8.90;;;1.20;99.90;;;;;;5203404;28;20195;-67
2021/04/25 00:20:48;;;;;;;20.10;8.67;;;1.20;99.90;;;;;;5198013;28;20248;-66
2021/04/25 00:23:20;;;;;;;20.50;9.00;;;1.20;99.90;;;;;;5193251;28;20195;-66
2021/04/25 00:25:51;;;;;;;20.63;9.23;;;1.10;99.90;;;;;;5193344;28;20206;-66
2021/04/25 00:28:23;;;;;;;21.67;9.37;;;1.10;99.90;;;;;;5196791;28;20194;-67
2021/04/25 00:30:54;;;;;;;20.73;8.43;;;1.00;99.90;;;;;;5194561;28;20187;-69
2021/04/25 00:33:26;;;;;;;20.90;9.43;;;1.00;99.90;;;;;;5193530;28;20577;-67
2021/04/25 00:35:57;;;;;;;18.87;9.17;;;1.00;99.90;;;;;;5195380;28;20201;-66
2021/04/25 00:38:29;;;;;;;19.90;8.57;;;0.90;99.90;;;;;;5193580;28;20195;-68
2021/04/25 00:41:00;;;;;;;23.63;9.13;;;0.90;99.90;;;;;;5192839;28;20217;-66
2021/04/25 00:43:33;;;;;;;22.97;8.37;;;0.80;99.90;;;;;;5197791;28;20385;-66
2021/04/25 00:46:06;;;;;;;22.00;8.67;;;0.80;99.90;;;;;;5191737;28;20230;-65
2021/04/25 00:48:37;;;;;;;17.53;8.67;;;0.80;99.90;;;;;;5192493;28;20218;-66
2021/04/25 00:51:13;;;;;;;20.70;9.83;;;0.80;99.90;;;;;;5193746;28;20209;-66
2021/04/25 00:53:44;;;;;;;19.20;9.33;;;0.80;99.90;;;;;;5196350;28;20214;-67
2021/04/25 00:56:17;;;;;;;20.80;8.87;;;0.70;99.90;;;;;;5192104;28;20205;-66
2021/04/25 00:58:49;;;;;;;24.67;10.60;;;0.70;99.90;;;;;;5193972;28;20586;-66
2021/04/25 01:01:21;;;;;;;20.03;9.50;;;0.70;99.90;;;;;;5191574;28;20194;-65
2021/04/25 01:03:53;;;;;;;22.87;9.80;;;0.60;99.90;;;;;;5196751;28;20238;-66
2021/04/25 01:06:25;;;;;;;24.07;10.57;;;0.60;99.90;;;;;;5193141;28;20312;-67
2021/04/25 01:08:56;;;;;;;22.87;10.40;;;0.60;99.90;;;;;;5192764;28;20202;-67
2021/04/25 01:11:27;;;;;;;19.83;9.47;;;0.60;99.90;;;;;;5194363;28;20301;-67
2021/04/25 01:13:59;;;;;;;22.57;9.77;;;0.50;99.90;;;;;;5194781;28;20197;-68
2021/04/25 01:16:30;;;;;;;23.93;9.60;;;0.50;99.90;;;;;;5195777;28;20198;-69
2021/04/25 01:19:02;;;;;;;18.57;9.37;;;0.50;99.90;;;;;;5198507;28;20210;-69
2021/04/25 01:21:34;;;;;;;21.63;9.57;;;0.40;99.90;;;;;;5197994;28;20209;-71
2021/04/25 01:24:06;;;;;;;18.83;9.63;;;0.40;99.90;;;;;;5189901;28;20233;-69
2021/04/25 01:26:37;;;;;;;20.87;9.77;;;0.40;99.90;;;;;;5201698;28;20218;-67
2021/04/25 01:29:09;;;;;;;21.00;9.10;;;0.30;99.90;;;;;;5194579;28;20199;-70
2021/04/25 01:31:40;;;;;;;21.77;9.00;;;0.30;99.90;;;;;;5193135;28;20680;-66
2021/04/25 01:34:12;;;;;;;21.50;8.90;;;0.30;99.90;;;;;;5201811;28;20241;-66
2021/04/25 01:36:43;;;;;;;16.43;8.43;;;0.30;99.90;;;;;;5194307;28;20210;-66
2021/04/25 01:39:16;;;;;;;16.83;8.20;;;0.20;99.90;;;;;;5200413;28;20209;-65
2021/04/25 01:41:48;;;;;;;16.77;7.90;;;0.20;99.90;;;;;;5203985;28;20220;-66
2021/04/25 01:44:19;;;;;;;13.80;7.07;;;0.20;99.90;;;;;;5193597;28;20207;-66
2021/04/25 01:46:51;;;;;;;16.13;7.67;;;0.20;99.90;;;;;;5203545;28;20679;-67
2021/04/25 01:49:22;;;;;;;13.40;7.17;;;0.20;99.90;;;;;;5200276;28;20226;-66
2021/04/25 01:51:53;;;;;;;17.57;7.20;;;0.20;99.90;;;;;;5210094;28;20214;-67
2021/04/25 01:54:25;;;;;;;14.03;6.80;;;0.20;99.90;;;;;;5221176;28;20207;-66
2021/04/25 01:56:56;;;;;;;18.37;6.83;;;0.20;99.90;;;;;;5196427;28;20214;-65
2021/04/25 01:59:28;;;;;;;15.33;7.00;;;0.20;99.90;;;;;;5213531;28;20195;-66
2021/04/25 02:02:00;;;;;;;12.80;6.33;;;0.20;99.90;;;;;;5205136;28;20677;-66
2021/04/25 02:04:31;;;;;;;13.33;6.63;;;0.20;99.90;;;;;;5193256;28;20261;-64
2021/04/25 02:07:03;;;;;;;15.27;6.20;;;0.10;99.90;;;;;;5201190;28;20230;-66
2021/04/25 02:09:34;;;;;;;14.67;6.87;;;0.10;99.90;;;;;;5201375;28;20222;-66
2021/04/25 02:12:06;;;;;;;14.97;7.10;;;0.10;99.90;;;;;;5192939;28;20206;-66
2021/04/25 02:14:37;;;;;;;11.80;6.43;;;0.10;99.90;;;;;;5204832;28;20657;-65
2021/04/25 02:17:09;;;;;;;13.17;6.37;;;0.10;99.90;;;;;;5197782;28;20198;-66
2021/04/25 02:19:40;;;;;;;15.30;5.67;;;0.10;99.90;;;;;;5196204;28;20202;-68
2021/04/25 02:22:12;;;;;;;13.27;6.17;;;0.00;99.90;;;;;;5204970;28;20608;-66
2021/04/25 02:24:43;;;;;;;12.23;6.30;;;0.00;99.90;;;;;;5194154;28;20221;-65
2021/04/25 02:27:15;;;;;;;15.93;5.87;;;0.00;99.90;;;;;;5199686;28;20609;-66
2021/04/25 02:29:47;;;;;;;10.77;5.47;;;0.00;99.90;;;;;;5202899;28;20237;-66
2021/04/25 02:32:18;;;;;;;12.30;5.93;;;0.00;99.90;;;;;;5192567;28;20229;-66
2021/04/25 02:34:50;;;;;;;13.50;5.67;;;0.00;99.90;;;;;;5202741;28;20689;-67
2021/04/25 02:37:21;;;;;;;12.40;5.70;;;0.00;99.90;;;;;;5198942;28;20657;-67
2021/04/25 02:39:52;;;;;;;14.80;6.23;;;0.00;99.90;;;;;;5209811;28;20207;-66
2021/04/25 02:42:24;;;;;;;15.13;6.37;;;-0.10;99.90;;;;;;5188652;28;20210;-69
2021/04/25 02:44:55;;;;;;;15.70;5.90;;;-0.10;99.90;;;;;;5188747;28;20211;-66
2021/04/25 02:47:27;;;;;;;17.43;5.80;;;-0.10;99.90;;;;;;5187206;28;20241;-67
2021/04/25 02:49:58;;;;;;;14.20;5.80;;;-0.10;99.90;;;;;;5188808;28;20654;-67
2021/04/25 02:52:30;;;;;;;15.67;5.83;;;-0.20;99.90;;;;;;5188285;28;20214;-67
2021/04/25 02:55:01;;;;;;;12.70;5.67;;;-0.10;99.90;;;;;;5188748;28;20602;-66
2021/04/25 02:57:33;;;;;;;14.60;5.77;;;-0.20;99.90;;;;;;5188504;28;20203;-68
2021/04/25 03:00:08;;;;;;;12.70;5.40;;;-0.20;99.90;;;;;;5188506;28;20215;-66
2021/04/25 03:02:39;;;;;;;12.07;5.23;;;-0.20;99.90;;;;;;5188105;28;20557;-66
2021/04/25 03:05:11;;;;;;;10.13;5.33;;;-0.20;99.90;;;;;;5189182;28;20514;-67
2021/04/25 03:07:46;;;;;;;14.40;5.67;;;-0.20;99.90;;;;;;5186692;28;20238;-67
2021/04/25 03:10:19;;;;;;;12.63;5.70;;;-0.30;99.90;;;;;;5188238;28;20549;-66
2021/04/25 03:12:51;;;;;;;12.10;5.90;;;-0.20;99.90;;;;;;5188082;28;20203;-66
2021/04/25 03:15:23;;;;;;;9.97;5.53;;;-0.30;99.90;;;;;;5188422;28;20568;-66
2021/04/25 03:17:54;;;;;;;9.77;4.63;;;-0.30;99.90;;;;;;5188000;28;20213;-67
2021/04/25 03:20:26;;;;;;;15.13;5.60;;;-0.30;99.90;;;;;;5188167;28;20234;-67
2021/04/25 03:22:58;;;;;;;13.30;5.40;;;-0.30;99.90;;;;;;5187864;28;20293;-68
2021/04/25 03:25:29;;;;;;;11.17;5.10;;;-0.30;99.90;;;;;;5187612;28;20210;-65
2021/04/25 03:28:00;;;;;;;11.23;4.67;;;-0.30;99.90;;;;;;5188087;28;20214;-67
2021/04/25 03:30:32;;;;;;;10.83;5.33;;;-0.30;99.90;;;;;;5187728;28;20211;-65
2021/04/25 03:33:03;;;;;;;13.57;4.73;;;-0.30;99.90;;;;;;5187866;28;20206;-67
2021/04/25 03:35:35;;;;;;;10.47;4.73;;;-0.30;99.90;;;;;;5186306;28;20237;-67
2021/04/25 03:38:06;;;;;;;11.87;5.00;;;-0.30;99.90;;;;;;5187692;28;20206;-65
2021/04/25 03:40:38;;;;;;;14.43;5.03;;;-0.30;99.90;;;;;;5187696;28;20199;-69
2021/04/25 03:43:09;;;;;;;8.73;4.77;;;-0.20;99.90;;;;;;5188387;28;20210;-66
2021/04/25 03:45:41;;;;;;;11.40;4.47;;;-0.30;99.90;;;;;;5188567;28;20203;-69
2021/04/25 03:48:12;;;;;;;10.13;4.50;;;-0.20;99.90;;;;;;5187638;28;20210;-72
2021/04/25 03:50:44;;;;;;;11.30;5.40;;;-0.20;99.90;;;;;;5187315;28;20211;-66
2021/04/25 03:53:15;;;;;;;9.83;4.83;;;-0.20;99.90;;;;;;5187365;28;20211;-66
2021/04/25 03:55:46;;;;;;;12.27;4.73;;;-0.20;99.90;;;;;;5187533;28;20207;-68
2021/04/25 03:58:18;;;;;;;12.20;5.30;;;-0.10;99.90;;;;;;5186978;28;20214;-65
2021/04/25 04:00:49;;;;;;;10.23;5.07;;;-0.10;99.90;;;;;;5187597;28;20206;-66
2021/04/25 04:03:25;;;;;;;12.57;5.43;;;-0.10;99.90;;;;;;5187284;28;20217;-69
2021/04/25 04:05:56;;;;;;;9.53;4.60;;;0.00;99.90;;;;;;5186884;28;20225;-67
2021/04/25 04:08:28;;;;;;;9.50;4.60;;;0.00;99.90;;;;;;5187136;28;20573;-67
2021/04/25 04:10:59;;;;;;;11.23;4.57;;;0.10;99.90;;;;;;5186949;28;20249;-67
2021/04/25 04:13:31;;;;;;;9.40;4.17;;;0.10;99.90;;;;;;5186989;28;20210;-66
2021/04/25 04:16:03;;;;;;;8.43;4.67;;;0.20;99.90;;;;;;5187024;28;20245;-67
2021/04/25 04:18:34;;;;;;;10.80;4.83;;;0.30;99.90;;;;;;5187267;28;20286;-67
2021/04/25 04:21:06;;;;;;;9.73;4.50;;;0.30;99.90;;;;;;5186692;28;20203;-66
2021/04/25 04:23:37;;;;;;;12.57;5.33;;;0.30;99.90;;;;;;5187079;28;20277;-66
2021/04/25 04:26:10;;;;;;;12.67;5.90;;;0.40;99.90;;;;;;5186838;28;20234;-66
2021/04/25 04:28:42;;;;;;;11.93;5.20;;;0.40;99.90;;;;;;5186683;28;20211;-67
2021/04/25 04:31:13;;;;;;;10.50;5.20;;;0.50;99.90;;;;;;5186732;28;20202;-67
2021/04/25 04:33:45;;;;;;;14.77;5.07;;;0.60;99.90;;;;;;5186524;28;20257;-68
2021/04/25 04:36:17;;;;;;;14.33;5.50;;;0.60;99.90;;;;;;5186616;28;20242;-66
2021/04/25 04:38:48;;;;;;;12.67;5.10;;;0.70;99.90;;;;;;5186435;28;20207;-68
2021/04/25 04:41:19;;;;;;;12.77;4.83;;;0.70;99.90;;;;;;5186480;28;20202;-67
2021/04/25 04:43:51;;;;;;;8.23;4.30;;;0.80;99.90;;;;;;5186796;28;20203;-67
2021/04/25 04:46:23;;;;;;;13.43;4.90;;;0.90;99.90;;;;;;5186590;28;20230;-66
2021/04/25 04:48:54;;;;;;;10.80;4.23;;;0.90;99.90;;;;;;5186554;28;20210;-67
2021/04/25 04:51:26;;;;;;;11.77;5.50;;;1.00;99.90;;;;;;5186429;28;20302;-65
2021/04/25 04:53:57;;;;;;;12.33;4.07;;;1.10;99.90;;;;;;5191610;28;20210;-67
2021/04/25 04:56:28;;;;;;;12.10;4.73;;;1.20;99.90;;;;;;5186910;28;20236;-68
2021/04/25 04:59:00;;;;;;;9.63;4.50;;;1.20;99.90;;;;;;5194663;28;20191;-66
2021/04/25 05:01:32;;;;;;;15.67;4.90;;;1.30;99.90;;;;;;5206744;28;20696;-66
2021/04/25 05:04:03;;;;;;;11.30;4.70;;;1.40;99.90;;;;;;5206477;28;20225;-66
2021/04/25 05:06:35;;;;;;;10.63;4.30;;;1.40;99.90;;;;;;5206675;28;20230;-66
2021/04/25 05:09:06;;;;;;;11.93;4.20;;;1.50;99.90;;;;;;5206511;28;20217;-67
2021/04/25 05:11:37;;;;;;;10.77;4.23;;;1.60;99.90;;;;;;5209743;28;20205;-66
2021/04/25 05:14:09;;;;;;;9.60;4.20;;;1.80;99.90;;;;;;5201613;28;20202;-72
2021/04/25 05:16:40;;;;;;;8.23;3.70;;;1.90;99.90;;;;;;5198012;28;20202;-67
2021/04/25 05:19:12;;;;;;;10.03;3.63;;;2.00;99.90;;;;;;5200384;28;20195;-67
2021/04/25 05:21:43;;;;;;;7.13;3.73;;;2.00;99.90;;;;;;5210754;28;20213;-66
2021/04/25 05:24:15;;;;;;;6.80;3.57;;;2.10;99.90;;;;;;5210999;28;20209;-68
2021/04/25 05:26:46;;;;;;;11.00;3.67;;;2.30;99.90;;;;;;5210681;28;20234;-67
2021/04/25 05:29:18;;;;;;;10.47;3.80;;;2.30;99.90;;;;;;5210341;28;20202;-67
2021/04/25 05:31:49;;;;;;;7.87;3.20;;;2.50;99.90;;;;;;5210738;28;20561;-66
2021/04/25 05:34:21;;;;;;;8.63;3.43;;;2.60;99.90;;;;;;5210247;28;20240;-67
2021/04/25 05:36:52;;;;;;;9.47;3.00;;;2.60;99.90;;;;;;5225560;28;20212;-67
2021/04/25 05:39:23;;;;;;;7.63;3.20;;;2.70;99.90;;;;;;5209643;28;20206;-66
2021/04/25 05:41:55;;;;;;;6.60;3.07;;;2.90;99.90;;;;;;5200528;28;20203;-68
2021/04/25 05:44:27;;;;;;;10.80;3.77;;;3.00;99.90;;;;;;5210160;28;20214;-67
2021/04/25 05:46:59;;;;;;;10.13;3.73;;;3.10;99.90;;;;;;5209103;28;20206;-66
2021/04/25 05:49:30;;;;;;;8.90;4.50;;;3.20;99.90;;;;;;5196303;28;20207;-66
2021/04/25 05:52:02;;;;;;;8.27;3.70;;;3.30;99.90;;;;;;5196356;28;20203;-66
2021/04/25 05:54:33;;;;;;;6.73;3.73;;;3.40;99.90;;;;;;5201495;28;20187;-67
2021/04/25 05:57:07;;;;;;;7.27;2.87;;;3.50;99.90;;;;;;5198629;28;20195;-67
2021/04/25 05:59:39;;;;;;;6.73;3.03;;;3.60;99.90;;;;;;5198034;28;20195;-68
2021/04/25 06:02:10;;;;;;;4.90;3.00;;;3.80;99.90;;;;;;5198972;28;20203;-68
2021/04/25 06:04:42;;;;;;;5.47;2.60;;;3.90;99.90;;;;;;5198551;28;20274;-67
2021/04/25 06:07:13;;;;;;;6.93;2.83;;;4.00;99.90;;;;;;5200675;28;20253;-68
2021/04/25 06:09:44;;;;;;;5.03;2.57;;;4.10;99.90;;;;;;5209230;28;20206;-68
2021/04/25 06:12:16;;;;;;;5.00;2.33;;;4.20;99.90;;;;;;5224933;28;20198;-67
2021/04/25 06:14:47;;;;;;;4.20;1.80;;;4.30;99.90;;;;;;5209812;28;20668;-69
2021/04/25 06:17:19;;;;;;;4.40;2.07;;;4.50;99.90;;;;;;5209224;28;20198;-67
2021/04/25 06:19:50;;;;;;;4.23;1.87;;;5.80;99.90;;;;;;5196485;28;20578;-65
2021/04/25 06:22:22;;;;;;;3.20;1.60;;;8.20;99.90;;;;;;5188422;28;20570;-66
2021/04/25 06:24:56;;;;;;;3.50;1.30;;;10.60;99.90;;;;;;5188870;28;20614;-65
2021/04/25 06:27:27;;;;;;;2.97;1.27;;;12.90;99.90;;;;;;5188732;28;20276;-66
2021/04/25 06:29:59;;;;;;;4.00;1.60;;;14.70;97.60;;;;;;5188756;28;20277;-67
2021/04/25 06:32:30;;;;;;;4.13;1.10;;;16.40;90.10;;;;;;5188629;28;20230;-64
2021/04/25 06:35:04;;;;;;;2.10;1.23;;;17.70;80.00;;;;;;5188495;28;20721;-66
2021/04/25 06:37:35;;;;;;;3.17;1.13;;;17.60;71.30;;;;;;5190832;28;20649;-66
2021/04/25 06:40:12;;;;;;;2.60;1.42;;;16.80;68.70;;;;;;5208763;28;20201;-67
2021/04/25 06:42:43;;;;;;;3.15;1.70;;;17.40;68.40;;;;;;5208517;28;20213;-64
2021/04/25 06:45:18;;;;;;;2.15;1.13;;;18.10;66.40;;;;;;5208901;28;20205;-65
2021/04/25 06:47:50;;;;;;;4.18;1.40;;;18.80;65.40;;;;;;5208615;28;20239;-66
2021/04/25 06:50:22;;;;;;;2.40;0.98;;;19.70;62.10;;;;;;5208605;28;20198;-65
2021/04/25 06:52:53;;;;;;;1.63;0.63;;;20.00;59.60;;;;;;5208903;28;20228;-65
2021/04/25 06:55:25;;;;;;;2.50;1.85;;;19.80;57.20;;;;;;5208437;28;20193;-67
2021/04/25 06:57:56;;;;;;;2.58;1.17;;;18.80;57.00;;;;;;5208750;28;20198;-68
2021/04/25 07:00:28;;;;;;;2.88;1.00;;;18.50;57.00;;;;;;5208477;28;20194;-65
2021/04/25 07:02:59;;;;;;;2.88;0.80;;;17.80;58.10;;;;;;5208170;28;20195;-66
2021/04/25 07:05:31;;;;;;;1.67;0.70;;;16.60;59.90;;;;;;5208287;28;20226;-66
2021/04/25 07:08:03;;;;;;;1.73;0.60;;;15.10;63.10;;;;;;5208220;28;20554;-68
2021/04/25 07:10:34;;;;;;;1.45;0.70;;;15.40;64.50;;;;;;5208090;28;20213;-66
2021/04/25 07:13:06;;;;;;;3.05;0.88;;;15.90;60.00;;;;;;5208069;28;20213;-67
2021/04/25 07:15:37;;;;;;;4.05;0.77;;;16.00;60.50;;;;;;5207115;28;20547;-69
2021/04/25 07:18:09;;;;;;;1.70;0.65;;;16.50;61.40;;;;;;5207987;28;20229;-66
2021/04/25 07:20:43;;;;;;;0.88;0.60;;;17.10;62.20;;;;;;5207797;28;20186;-65
2021/04/25 07:23:15;;;;;;;1.70;0.70;;;17.40;58.40;;;;;;5222915;28;20247;-67
2021/04/25 07:25:46;;;;;;;2.40;0.80;;;17.60;57.50;;;;;;5207786;28;20202;-67
2021/04/25 07:28:18;;;;;;;1.70;0.60;;;16.00;59.00;;;;;;5207938;28;20229;-66
2021/04/25 07:30:51;;;;;;;1.83;0.50;;;14.20;60.90;;;;;;5207739;28;20206;-67
2021/04/25 07:33:23;;;;;;;0.82;0.47;;;12.10;63.40;;;;;;5195376;28;20199;-64
2021/04/25 07:35:55;;;;;;;5.23;1.00;;;10.20;68.60;;;;;;5187344;28;20202;-65
2021/04/25 07:38:27;;;;;;;2.33;0.70;;;9.40;71.40;;;;;;5187261;28;20565;-68
2021/04/25 07:40:58;;;;;;;4.13;0.80;;;8.90;71.50;;;;;;5193962;28;20195;-65
2021/04/25 07:43:30;;;;;;;1.53;0.70;;;8.50;72.60;;;;;;5195980;28;20203;-64
2021/04/25 07:46:02;;;;;;;2.20;0.80;;;8.20;71.60;;;;;;5196489;28;20202;-65
2021/04/25 07:48:33;;;;;;;2.93;1.03;;;8.00;71.30;;;;;;5198358;28;20274;-65
2021/04/25 07:51:05;;;;;;;2.40;0.80;;;7.50;72.20;;;;;;5187744;28;20233;-66
2021/04/25 07:53:37;;;;;;;1.60;0.67;;;7.60;75.00;;;;;;5186740;28;20571;-66
2021/04/25 07:56:09;;;;;;;1.50;0.60;;;7.40;71.30;;;;;;5186673;28;20321;-67
2021/04/25 07:58:40;;;;;;;2.13;1.10;;;7.30;72.20;;;;;;5186581;28;20215;-65
2021/04/25 08:01:14;;;;;;;2.50;0.70;;;7.00;71.70;;;;;;5186904;28;20578;-68
2021/04/25 08:03:46;;;;;;;1.87;0.90;;;7.00;72.60;;;;;;5186795;28;20608;-67
2021/04/25 08:06:17;;;;;;;2.57;0.90;;;7.10;72.10;;;;;;5186492;28;20225;-67
2021/04/25 08:08:48;;;;;;;1.40;0.70;;;7.40;71.60;;;;;;5186334;28;20210;-66
2021/04/25 08:11:21;;;;;;;2.03;0.70;;;8.10;73.10;;;;;;5186470;28;20713;-66
2021/04/25 08:13:53;;;;;;;1.10;0.60;;;8.40;66.00;;;;;;5186229;28;20214;-65
2021/04/25 08:16:24;;;;;;;1.73;0.60;;;8.40;65.80;;;;;;5186764;28;20210;-65
2021/04/25 08:18:56;;;;;;;1.70;0.90;;;8.00;66.10;;;;;;5186301;28;20208;-67
2021/04/25 08:21:30;;;;;;;1.53;0.73;;;7.90;66.30;;;;;;5186708;28;20549;-70
2021/04/25 08:24:02;;;;;;;0.70;0.47;;;8.10;65.80;;;;;;5186653;28;20202;-68
2021/04/25 08:26:34;;;;;;;0.90;0.57;;;8.50;65.90;;;;;;5186433;28;20222;-70
2021/04/25 08:29:06;;;;;;;1.17;0.60;;;8.90;68.40;;;;;;5186589;28;20253;-66
2021/04/25 08:31:40;;;;;;;1.50;0.60;;;9.40;68.00;;;;;;5201516;28;20651;-68
2021/04/25 08:34:12;;;;;;;1.23;0.60;;;9.60;63.80;;;;;;5185856;28;20231;-71
2021/04/25 08:36:43;;;;;;;1.10;0.50;;;9.10;63.70;;;;;;5186333;28;20206;-66
2021/04/25 08:39:15;;;;;;;1.20;0.67;;;8.60;65.20;;;;;;5186235;28;20532;-71
2021/04/25 08:41:47;;;;;;;2.33;1.10;;;8.30;67.00;;;;;;5186215;28;20202;-68
2021/04/25 08:44:20;;;;;;;2.77;1.47;;;7.90;69.10;;;;;;5186112;28;20213;-71
2021/04/25 08:46:53;;;;;;;1.87;0.97;;;7.50;76.30;;;;;;5185892;28;20230;-68
2021/04/25 08:49:26;;;;;;;3.63;0.80;;;6.90;77.50;;;;;;5186507;28;20195;-69
2021/04/25 08:51:58;;;;;;;1.10;0.50;;;6.50;80.50;;;;;;5186076;28;20202;-70
2021/04/25 08:54:30;;;;;;;2.70;0.70;;;5.80;87.50;;;;;;5186154;28;20508;-68
2021/04/25 08:57:02;;;;;;;0.77;0.77;;;4.70;92.80;;;;;;5186165;28;20673;-70
2021/04/25 08:59:33;;;;;;;2.33;1.33;;;4.20;97.30;;;;;;5186055;28;20203;-65
2021/04/25 09:02:05;;;;;;;1.77;1.10;;;4.00;99.90;;;;;;5185926;28;20214;-69
2021/04/25 09:04:36;;;;;;;2.23;1.27;;;3.70;99.90;;;;;;5186115;28;20246;-76
2021/04/25 09:07:15;;;;;;;2.33;1.47;;;3.70;99.90;;;;;;5185819;28;20227;-74
2021/04/25 09:09:49;;;;;;;1.90;1.20;;;3.80;99.90;;;;;;5185785;28;20198;-73
2021/04/25 09:12:44;;;;;;;1.60;1.10;;;4.00;99.90;;;;;;5185911;28;20218;-67
2021/04/25 09:15:25;;;;;;;2.40;0.93;;;4.20;99.90;;;;;;5185836;28;20206;-72
2021/04/25 09:18:02;;;;;;;1.20;0.70;;;4.40;99.90;;;;;;5185794;28;20313;-69
2021/04/25 09:20:35;;;;;;;1.57;0.60;;;4.60;99.90;;;;;;5185794;28;20626;-69
2021/04/25 09:23:09;;;;;;;1.83;0.70;;;4.70;99.90;;;;;;5185324;28;20218;-69
2021/04/25 09:25:55;;;;;;;1.60;0.93;;;5.10;99.90;;;;;;5185303;28;20198;-75
2021/04/25 09:28:29;;;;;;;1.83;0.83;;;5.50;99.90;;;;;;5185897;28;20557;-69
2021/04/25 09:31:08;;;;;;;3.20;0.63;;;5.90;99.90;;;;;;5185459;28;20253;-69
2021/04/25 09:33:55;;;;;;;2.80;1.03;;;6.00;99.90;;;;;;5184396;28;20711;-67
2021/04/25 09:36:28;;;;;;;2.67;1.00;;;6.30;99.90;;;;;;5185820;28;20206;-66
2021/04/25 09:39:11;;;;;;;2.80;1.20;;;6.40;99.90;;;;;;5186075;28;20606;-71
2021/04/25 09:41:44;;;;;;;1.43;0.80;;;6.70;99.90;;;;;;5204933;28;20289;-70
2021/04/25 09:44:36;;;;;;;2.83;0.73;;;6.80;99.90;;;;;;5206165;28;20213;-68
2021/04/25 09:47:07;;;;;;;1.30;0.67;;;6.70;99.90;;;;;;5205887;28;20218;-68
2021/04/25 09:49:39;;;;;;;2.17;0.70;;;6.40;99.90;;;;;;5205917;28;20507;-68
2021/04/25 09:52:13;;;;;;;2.60;0.63;;;6.50;99.90;;;;;;5206063;28;20210;-66
2021/04/25 09:54:45;;;;;;;1.13;0.60;;;6.30;99.90;;;;;;5206046;28;20198;-66
2021/04/25 09:57:32;;;;;;;1.73;0.60;;;6.20;99.90;;;;;;5208357;28;20205;-67
2021/04/25 10:00:05;;;;;;;1.73;0.90;;;6.30;99.90;;;;;;5209643;28;20206;-69
2021/04/25 10:02:54;;;;;;;0.67;0.60;;;6.40;99.90;;;;;;5209792;28;20205;-71
2021/04/25 10:05:28;;;;;;;3.87;0.80;;;6.20;99.90;;;;;;5209592;28;20293;-68
2021/04/25 10:08:00;;;;;;;1.20;0.77;;;6.10;99.90;;;;;;5209201;28;20234;-68
2021/04/25 10:10:32;;;;;;;1.43;0.70;;;6.00;99.90;;;;;;5225032;28;20203;-67
2021/04/25 10:13:05;;;;;;;1.23;0.80;;;6.00;99.90;;;;;;5209446;28;20210;-69
2021/04/25 10:15:36;;;;;;;1.47;1.03;;;6.00;99.90;;;;;;5209742;28;20633;-68
2021/04/25 10:18:09;;;;;;;1.93;1.00;;;5.90;99.90;;;;;;5209950;28;20579;-71
2021/04/25 10:20:40;;;;;;;1.37;0.90;;;5.90;99.90;;;;;;5210047;28;20520;-73
2021/04/25 10:23:12;;;;;;;3.10;1.00;;;5.70;99.90;;;;;;5209461;28;20210;-73
2021/04/25 10:25:44;;;;;;;3.73;1.03;;;5.60;99.90;;;;;;5210065;28;20756;-67
2021/04/25 10:28:34;;;;;;;1.60;1.10;;;5.50;99.90;;;;;;5224457;28;20234;-71
2021/04/25 10:31:10;;;;;;;2.07;0.90;;;5.40;99.90;;;;;;5209169;28;20214;-69
2021/04/25 10:34:04;;;;;;;1.97;1.10;;;5.20;99.90;;;;;;5209309;28;20238;-70
2021/04/25 10:36:45;;;;;;;2.00;1.03;;;5.10;99.90;;;;;;5205323;28;20213;-69
2021/04/25 10:39:36;;;;;;;2.07;0.90;;;4.80;99.90;;;;;;5208974;28;20201;-77
2021/04/25 10:42:20;;;;;;;1.80;0.90;;;4.60;99.90;;;;;;5209094;28;20536;-72
2021/04/25 10:45:09;;;;;;;1.27;0.87;;;4.30;99.90;;;;;;5208762;28;20198;-70
2021/04/25 10:47:41;;;;;;;4.10;0.80;;;4.10;99.90;;;;;;5224255;28;20606;-69
2021/04/25 10:50:15;;;;;;;2.37;1.20;;;4.00;99.90;;;;;;5208789;28;20218;-70
2021/04/25 10:52:50;;;;;;;1.30;0.90;;;3.90;99.90;;;;;;5223822;28;20688;-70
2021/04/25 10:55:32;;;;;;;3.07;1.33;;;3.90;99.90;;;;;;5207682;28;20202;-70
2021/04/25 10:58:10;;;;;;;2.17;1.47;;;3.90;99.90;;;;;;5198102;28;20660;-66
2021/04/25 11:00:42;;;;;;;2.50;1.83;;;3.90;99.90;;;;;;5192649;28;20229;-69
2021/04/25 11:03:33;;;;;;;4.07;2.10;;;4.00;99.90;;;;;;5187693;28;20199;-70
2021/04/25 11:06:23;;;;;;;4.57;1.83;;;4.20;99.90;;;;;;5187889;28;20553;-70
2021/04/25 11:08:56;;;;;;;4.17;2.10;;;4.30;99.90;;;;;;5186649;28;20547;-73
2021/04/25 11:11:36;;;;;;;7.17;2.53;;;4.50;99.90;;;;;;5193103;28;20201;-69
2021/04/25 11:14:08;;;;;;;5.53;2.43;;;4.80;99.90;;;;;;5187571;28;20268;-68
2021/04/25 11:16:39;;;;;;;6.03;2.27;;;4.90;99.90;;;;;;5187931;28;20195;-70
2021/04/25 11:19:14;;;;;;;2.77;2.10;;;4.90;99.90;;;;;;5187637;28;20202;-69
2021/04/25 11:21:53;;;;;;;5.93;2.47;;;5.00;99.90;;;;;;5187808;28;20563;-68
2021/04/25 11:24:27;;;;;;;5.77;1.80;;;5.00;99.90;;;;;;5196327;28;20209;-65
2021/04/25 11:27:02;;;;;;;4.57;1.93;;;4.90;99.90;;;;;;5201729;28;20214;-67
2021/04/25 11:29:37;;;;;;;3.77;2.20;;;4.90;99.90;;;;;;5205228;28;20213;-67
2021/04/25 11:32:23;;;;;;;4.47;2.20;;;4.80;99.90;;;;;;5207831;28;20273;-66
2021/04/25 11:34:59;;;;;;;6.73;3.17;;;4.70;99.90;;;;;;5196474;28;20238;-66
2021/04/25 11:37:32;;;;;;;4.53;2.87;;;4.70;99.90;;;;;;5187169;28;20199;-65
2021/04/25 11:40:07;;;;;;;7.20;2.83;;;4.70;99.90;;;;;;5186293;28;20253;-65
2021/04/25 11:42:49;;;;;;;4.60;2.77;;;4.80;99.90;;;;;;5187091;28;20276;-65
2021/04/25 11:45:24;;;;;;;5.27;2.40;;;5.00;99.90;;;;;;5187496;28;20194;-66
2021/04/25 11:48:02;;;;;;;6.57;2.93;;;5.30;99.90;;;;;;5189354;28;20325;-64
2021/04/25 11:50:38;;;;;;;8.37;2.47;;;5.40;99.90;;;;;;5187880;28;20213;-65
2021/04/25 11:53:09;;;;;;;5.03;2.53;;;5.50;99.90;;;;;;5185083;28;20198;-68
2021/04/25 11:55:41;;;;;;;5.37;2.70;;;5.50;99.90;;;;;;5201354;28;20221;-66
2021/04/25 11:58:18;;;;;;;5.23;2.17;;;5.70;99.90;;;;;;5201715;28;20191;-68
2021/04/25 12:00:50;;;;;;;3.43;1.93;;;5.80;99.90;;;;;;5186385;28;20610;-65
2021/04/25 12:03:23;;;;;;;4.57;2.23;;;5.70;99.90;;;;;;5193453;28;20213;-67
2021/04/25 12:05:58;;;;;;;3.40;1.93;;;5.80;99.90;;;;;;5199993;28;20202;-65
2021/04/25 12:08:30;;;;;;;3.37;2.00;;;5.80;99.90;;;;;;5187733;28;20696;-64
2021/04/25 12:11:01;;;;;;;2.03;1.53;;;5.70;99.90;;;;;;5200250;28;20554;-67
2021/04/25 12:13:34;;;;;;;3.17;1.50;;;5.70;99.90;;;;;;5195061;28;20198;-66
2021/04/25 12:16:06;;;;;;;2.13;1.40;;;5.70;99.90;;;;;;5191144;28;20317;-67
2021/04/25 12:18:43;;;;;;;4.13;1.50;;;5.70;99.90;;;;;;5188679;28;20198;-69
2021/04/25 12:21:21;;;;;;;3.00;1.60;;;5.50;99.90;;;;;;5196690;28;20205;-69
2021/04/25 12:23:56;;;;;;;3.37;1.33;;;5.40;99.90;;;;;;5194138;28;20660;-77
2021/04/25 12:26:33;;;;;;;4.03;1.80;;;5.40;99.90;;;;;;5195889;28;20222;-72
2021/04/25 12:29:04;;;;;;;2.63;1.70;;;5.30;99.90;;;;;;5191255;28;20190;-68
2021/04/25 12:31:42;;;;;;;3.07;1.80;;;5.40;99.90;;;;;;5188096;28;20195;-68
2021/04/25 12:34:16;;;;;;;2.97;1.63;;;5.50;99.90;;;;;;5188897;28;20309;-74
2021/04/25 12:36:50;;;;;;;3.33;1.87;;;5.50;99.90;;;;;;5188659;28;20198;-73
2021/04/25 12:39:22;;;;;;;2.80;1.43;;;5.40;99.90;;;;;;5191877;28;20223;-70
2021/04/25 12:41:54;;;;;;;2.40;1.30;;;5.30;99.90;;;;;;5194170;28;20203;-71
2021/04/25 12:44:37;;;;;;;2.07;1.50;;;5.30;99.90;;;;;;5195087;28;20191;-69
2021/04/25 12:47:10;;;;;;;2.93;1.80;;;5.10;99.90;;;;;;5191426;28;20215;-72
2021/04/25 12:49:55;;;;;;;6.07;1.70;;;5.10;99.90;;;;;;5185779;28;20213;-68
2021/04/25 12:52:35;;;;;;;4.63;1.80;;;5.00;99.90;;;;;;5208681;28;20201;-68
2021/04/25 12:55:07;;;;;;;3.27;1.70;;;5.00;99.90;;;;;;5201188;28;20231;-68
2021/04/25 12:57:39;;;;;;;2.90;1.47;;;5.10;99.90;;;;;;5205923;28;20200;-69
2021/04/25 13:00:29;;;;;;;4.20;2.03;;;5.20;99.90;;;;;;5206307;28;20191;-70
2021/04/25 13:03:00;;;;;;;3.53;2.30;;;5.40;99.90;;;;;;5206078;28;20190;-69
2021/04/25 13:05:32;;;;;;;4.47;2.80;;;5.50;99.90;;;;;;5207209;28;20202;-68
2021/04/25 13:08:04;;;;;;;6.93;3.30;;;5.70;99.90;;;;;;5206179;28;20218;-67
2021/04/25 13:10:35;;;;;;;5.63;2.67;;;6.00;99.90;;;;;;5206689;28;20605;-67
2021/04/25 13:13:13;;;;;;;7.77;3.80;;;6.10;99.90;;;;;;5206951;28;20198;-67
2021/04/25 13:15:48;;;;;;;5.50;3.30;;;6.00;99.90;;;;;;5206617;28;20200;-70
2021/04/25 13:18:20;;;;;;;5.77;2.60;;;5.50;99.90;;;;;;5206471;28;20248;-68
2021/04/25 13:20:56;;;;;;;5.07;2.43;;;5.20;99.90;;;;;;5205639;28;20582;-66